Time;durP1;ratioP1;P1;durP2;ratioP2;P2;SDS_P1;SDS_P2;PMS_P1;PMS_P2;Temp;Humidity;BMP_temperature;BMP_pressure;BME280_temperature;BME280_humidity;BME280_pressure;Samples;Min_cycle;Max_cycle;Signal;HPM_P1;HPM_P2
2022/01/31 00:00:54;;;;;;;22.23;5.95;;;3.70;99.90;;;;;;4729796;30;20147;-61
2022/01/31 00:03:20;;;;;;;24.77;6.50;;;3.60;99.90;;;;;;4731913;30;20052;-62
2022/01/31 00:05:46;;;;;;;28.58;6.20;;;3.70;99.90;;;;;;4748245;30;20142;-60
2022/01/31 00:08:14;;;;;;;28.30;7.28;;;3.70;99.90;;;;;;4745566;30;20048;-61
2022/01/31 00:10:40;;;;;;;30.42;7.00;;;3.60;99.90;;;;;;4747084;30;20048;-61
2022/01/31 00:13:16;;;;;;;26.65;7.05;;;3.60;99.90;;;;;;4737407;30;20071;-61
2022/01/31 00:15:46;;;;;;;33.50;7.38;;;3.70;99.90;;;;;;4734095;30;20052;-61
2022/01/31 00:18:12;;;;;;;27.50;7.15;;;3.70;99.90;;;;;;4720600;30;20044;-62
2022/01/31 00:20:39;;;;;;;33.25;6.97;;;3.70;99.90;;;;;;4744234;30;20063;-61
2022/01/31 00:23:05;;;;;;;30.05;6.57;;;3.70;99.90;;;;;;4753242;30;20155;-61
2022/01/31 00:25:31;;;;;;;29.63;7.15;;;3.70;99.90;;;;;;4730445;30;20217;-61
2022/01/31 00:27:57;;;;;;;21.63;6.40;;;3.70;99.90;;;;;;4745483;30;20059;-61
2022/01/31 00:30:23;;;;;;;27.90;6.47;;;3.70;99.90;;;;;;4724180;30;20052;-61
2022/01/31 00:32:48;;;;;;;19.15;6.45;;;3.70;99.90;;;;;;4732717;30;20048;-61
2022/01/31 00:35:14;;;;;;;22.08;6.40;;;3.70;99.90;;;;;;4728704;30;20060;-61
2022/01/31 00:37:40;;;;;;;30.08;7.05;;;3.70;99.90;;;;;;4730348;30;20040;-61
2022/01/31 00:40:08;;;;;;;27.63;6.30;;;3.70;99.90;;;;;;4733053;30;20060;-61
2022/01/31 00:42:35;;;;;;;22.55;5.90;;;3.70;99.90;;;;;;4746950;30;20060;-61
2022/01/31 00:45:18;;;;;;;29.13;6.65;;;3.70;99.90;;;;;;4718514;30;20070;-62
2022/01/31 00:47:48;;;;;;;28.67;6.93;;;3.70;99.90;;;;;;4749106;30;20098;-61
2022/01/31 00:50:18;;;;;;;23.33;6.60;;;3.70;99.90;;;;;;4760961;30;20056;-60
2022/01/31 00:52:45;;;;;;;25.23;6.97;;;3.70;99.90;;;;;;4759716;30;20044;-62
2022/01/31 00:55:13;;;;;;;23.50;6.43;;;3.70;99.90;;;;;;4745800;30;20110;-62
2022/01/31 00:57:40;;;;;;;23.92;8.20;;;3.80;99.90;;;;;;4724635;30;20520;-62
2022/01/31 01:00:07;;;;;;;25.92;6.97;;;3.70;99.90;;;;;;4729614;30;20072;-61
2022/01/31 01:02:33;;;;;;;26.05;7.65;;;3.70;99.90;;;;;;4745682;30;20051;-61
2022/01/31 01:04:58;;;;;;;35.08;8.30;;;3.80;99.90;;;;;;4716488;30;20052;-61
2022/01/31 01:07:24;;;;;;;28.15;7.75;;;3.80;99.90;;;;;;4743579;30;20141;-61
2022/01/31 01:09:50;;;;;;;29.90;8.52;;;3.80;99.90;;;;;;4728093;30;20101;-61
2022/01/31 01:12:18;;;;;;;28.67;8.10;;;3.70;99.90;;;;;;4746373;30;20044;-61
2022/01/31 01:14:45;;;;;;;33.70;8.32;;;3.70;99.90;;;;;;4721771;30;20051;-60
2022/01/31 01:17:11;;;;;;;30.50;8.80;;;3.70;99.90;;;;;;4723186;30;20064;-61
2022/01/31 01:19:37;;;;;;;23.00;8.35;;;3.70;99.90;;;;;;4746963;30;20047;-61
2022/01/31 01:22:04;;;;;;;39.08;9.32;;;3.70;99.90;;;;;;4745060;30;20066;-61
2022/01/31 01:24:30;;;;;;;33.88;8.98;;;3.70;99.90;;;;;;4744275;30;20145;-61
2022/01/31 01:26:56;;;;;;;30.42;10.07;;;3.70;99.90;;;;;;4744431;30;20064;-62
2022/01/31 01:29:23;;;;;;;27.88;9.77;;;3.70;99.90;;;;;;4729229;30;20067;-61
2022/01/31 01:31:50;;;;;;;30.08;10.98;;;3.70;99.90;;;;;;4759255;30;20059;-60
2022/01/31 01:34:16;;;;;;;30.35;10.30;;;3.70;99.90;;;;;;4721503;30;20056;-60
2022/01/31 01:36:45;;;;;;;31.30;12.80;;;3.70;99.90;;;;;;4722750;30;20055;-61
2022/01/31 01:39:11;;;;;;;24.13;12.30;;;3.70;99.90;;;;;;4744299;30;20480;-61
2022/01/31 01:41:38;;;;;;;31.10;12.43;;;3.70;99.90;;;;;;4733691;30;20071;-61
2022/01/31 01:44:04;;;;;;;26.85;12.60;;;3.70;99.90;;;;;;4743389;30;20045;-61
2022/01/31 01:46:30;;;;;;;30.25;13.93;;;3.60;99.90;;;;;;4729190;30;20133;-61
2022/01/31 01:48:56;;;;;;;27.65;12.85;;;3.60;99.90;;;;;;4731717;30;20181;-61
2022/01/31 01:51:21;;;;;;;31.98;13.10;;;3.60;99.90;;;;;;4721552;30;20059;-61
2022/01/31 01:53:47;;;;;;;26.33;13.23;;;3.60;99.90;;;;;;4744661;30;20448;-62
2022/01/31 01:56:16;;;;;;;31.13;13.90;;;3.60;99.90;;;;;;4744954;30;20082;-61
2022/01/31 01:58:43;;;;;;;26.27;12.98;;;3.50;99.90;;;;;;4729671;30;20131;-61
2022/01/31 02:01:11;;;;;;;29.23;14.15;;;3.50;99.90;;;;;;4745420;30;20064;-61
2022/01/31 02:03:39;;;;;;;30.98;14.30;;;3.50;99.90;;;;;;4740149;30;20052;-61
2022/01/31 02:06:06;;;;;;;23.98;14.25;;;3.50;99.90;;;;;;4742949;30;20497;-62
2022/01/31 02:08:41;;;;;;;23.75;13.98;;;3.50;99.90;;;;;;4742907;30;20059;-60
2022/01/31 02:11:12;;;;;;;25.80;13.60;;;3.40;99.90;;;;;;4743574;30;20064;-61
2022/01/31 02:13:39;;;;;;;24.10;14.38;;;3.40;99.90;;;;;;4727686;30;20067;-61
2022/01/31 02:16:06;;;;;;;27.90;14.18;;;3.40;99.90;;;;;;4759241;30;20416;-61
2022/01/31 02:18:32;;;;;;;22.00;13.70;;;3.30;99.90;;;;;;4743806;30;20484;-62
2022/01/31 02:20:59;;;;;;;19.60;12.65;;;3.30;99.90;;;;;;4730447;30;20056;-61
2022/01/31 02:23:27;;;;;;;17.67;11.93;;;3.30;99.90;;;;;;4745549;30;20064;-61
2022/01/31 02:26:05;;;;;;;17.08;10.77;;;3.20;99.90;;;;;;4743896;30;20121;-61
2022/01/31 02:28:34;;;;;;;20.55;11.57;;;3.20;99.90;;;;;;4742777;30;20044;-60
2022/01/31 02:31:00;;;;;;;14.52;11.07;;;3.10;99.90;;;;;;4745474;30;20063;-61
2022/01/31 02:33:27;;;;;;;17.33;11.40;;;3.10;99.90;;;;;;4759443;30;20607;-61
2022/01/31 02:35:56;;;;;;;18.98;11.52;;;3.10;99.90;;;;;;4758585;30;20071;-61
2022/01/31 02:38:22;;;;;;;17.65;10.93;;;3.00;99.90;;;;;;4742231;30;20109;-60
2022/01/31 02:40:50;;;;;;;19.10;11.80;;;3.00;99.90;;;;;;4729413;30;20134;-60
2022/01/31 02:43:24;;;;;;;18.85;11.45;;;3.00;99.90;;;;;;4743318;30;20064;-61
2022/01/31 02:45:50;;;;;;;16.95;11.98;;;3.00;99.90;;;;;;4744094;30;20412;-60
2022/01/31 02:48:20;;;;;;;21.27;12.15;;;2.90;99.90;;;;;;4743048;30;20090;-61
2022/01/31 02:50:46;;;;;;;24.05;13.43;;;2.90;99.90;;;;;;4730111;30;20056;-60
2022/01/31 02:53:20;;;;;;;20.90;13.32;;;2.90;99.90;;;;;;4743559;30;20047;-61
2022/01/31 02:55:47;;;;;;;25.75;13.77;;;2.90;99.90;;;;;;4712445;30;20108;-62
2022/01/31 02:58:14;;;;;;;21.02;13.55;;;2.90;99.90;;;;;;4741202;30;20059;-61
2022/01/31 03:00:40;;;;;;;23.85;13.75;;;3.00;99.90;;;;;;4720941;30;20099;-61
2022/01/31 03:03:06;;;;;;;26.52;13.32;;;3.00;99.90;;;;;;4745012;30;20450;-61
2022/01/31 03:05:32;;;;;;;20.05;13.43;;;3.00;99.90;;;;;;4742796;30;20068;-61
2022/01/31 03:07:58;;;;;;;24.05;14.68;;;3.00;99.90;;;;;;4736651;30;20060;-62
2022/01/31 03:10:24;;;;;;;21.55;13.45;;;3.10;99.90;;;;;;4742841;30;20113;-61
2022/01/31 03:12:50;;;;;;;23.20;14.10;;;3.10;99.90;;;;;;4728530;30;20131;-61
2022/01/31 03:15:16;;;;;;;21.58;13.20;;;3.10;99.90;;;;;;4742975;30;20156;-60
2022/01/31 03:17:46;;;;;;;31.48;13.70;;;3.20;99.90;;;;;;4715356;30;20524;-61
2022/01/31 03:20:13;;;;;;;26.65;13.07;;;3.20;99.90;;;;;;4744421;30;20496;-61
2022/01/31 03:22:39;;;;;;;20.83;12.25;;;3.30;99.90;;;;;;4744922;30;20086;-61
2022/01/31 03:25:05;;;;;;;17.30;11.15;;;3.30;99.90;;;;;;4727096;30;20056;-62
2022/01/31 03:27:31;;;;;;;20.45;12.23;;;3.40;99.90;;;;;;4742485;30;20500;-61
2022/01/31 03:29:57;;;;;;;18.55;10.75;;;3.40;99.90;;;;;;4733190;30;20064;-61
2022/01/31 03:32:23;;;;;;;25.65;10.05;;;3.50;99.90;;;;;;4722060;30;20058;-61
2022/01/31 03:34:48;;;;;;;21.70;9.80;;;3.50;99.90;;;;;;4708837;30;20137;-61
2022/01/31 03:37:14;;;;;;;26.48;10.45;;;3.60;99.90;;;;;;4730859;30;20055;-61
2022/01/31 03:39:40;;;;;;;17.20;8.38;;;3.70;99.90;;;;;;4747062;30;20060;-61
2022/01/31 03:42:06;;;;;;;32.00;8.02;;;3.80;99.90;;;;;;4719262;30;20100;-60
2022/01/31 03:44:32;;;;;;;28.38;6.45;;;3.90;99.90;;;;;;4737170;30;20117;-61
2022/01/31 03:46:58;;;;;;;27.10;7.10;;;3.90;99.90;;;;;;4744834;30;20064;-61
2022/01/31 03:49:24;;;;;;;29.45;6.55;;;4.00;99.90;;;;;;4746853;30;20479;-60
2022/01/31 03:51:50;;;;;;;36.70;6.60;;;4.10;99.90;;;;;;4760886;30;20048;-61
2022/01/31 03:54:16;;;;;;;25.80;5.45;;;4.30;99.90;;;;;;4761966;30;20145;-61
2022/01/31 03:56:42;;;;;;;32.05;5.63;;;4.40;99.90;;;;;;4745125;30;20047;-61
2022/01/31 03:59:09;;;;;;;36.95;6.68;;;4.50;99.90;;;;;;4732416;30;20048;-60
2022/01/31 04:01:35;;;;;;;34.70;5.35;;;4.60;99.90;;;;;;4759832;30;20126;-61
2022/01/31 04:04:01;;;;;;;24.38;4.20;;;4.80;99.90;;;;;;4738437;30;20451;-60
2022/01/31 04:06:27;;;;;;;25.08;4.85;;;4.90;99.90;;;;;;4743575;30;20064;-61
2022/01/31 04:08:52;;;;;;;17.67;3.83;;;4.90;99.90;;;;;;4746733;30;20132;-61
2022/01/31 04:11:18;;;;;;;17.80;3.58;;;4.90;99.90;;;;;;4747008;30;20064;-61
2022/01/31 04:13:44;;;;;;;18.60;3.80;;;4.90;99.90;;;;;;4760664;30;20124;-61
2022/01/31 04:16:10;;;;;;;18.25;4.07;;;4.90;99.90;;;;;;4709441;30;20048;-61
2022/01/31 04:18:36;;;;;;;26.05;4.43;;;5.00;99.90;;;;;;4746465;30;20055;-60
2022/01/31 04:21:02;;;;;;;21.88;3.63;;;5.00;99.90;;;;;;4745750;30;20104;-61
2022/01/31 04:23:29;;;;;;;16.73;3.60;;;5.00;99.90;;;;;;4744969;30;20055;-60
2022/01/31 04:26:02;;;;;;;20.20;3.47;;;5.00;99.90;;;;;;4741806;30;20156;-60
2022/01/31 04:28:39;;;;;;;19.67;3.42;;;5.10;99.90;;;;;;4723046;30;20570;-61
2022/01/31 04:33:47;;;;;;;14.45;2.60;;;5.10;99.90;;;;;;4761070;30;20075;-61
2022/01/31 04:36:16;;;;;;;16.92;3.08;;;5.00;99.90;;;;;;4746052;30;20052;-61
2022/01/31 04:38:42;;;;;;;23.08;3.65;;;5.00;99.90;;;;;;4728809;30;20055;-61
2022/01/31 04:41:08;;;;;;;27.95;3.30;;;5.10;99.90;;;;;;4747858;30;20056;-60
2022/01/31 04:43:34;;;;;;;28.13;3.88;;;5.00;99.90;;;;;;4757853;30;20059;-61
2022/01/31 04:46:04;;;;;;;24.65;3.65;;;5.00;99.90;;;;;;4746690;30;20109;-61
2022/01/31 04:48:30;;;;;;;21.77;3.83;;;5.00;99.90;;;;;;4758867;30;20060;-60
2022/01/31 04:50:56;;;;;;;25.08;3.90;;;5.00;99.90;;;;;;4731128;30;20074;-61
2022/01/31 04:53:22;;;;;;;23.45;4.05;;;5.00;99.90;;;;;;4746874;30;20044;-62
2022/01/31 04:55:48;;;;;;;24.23;3.20;;;4.90;99.90;;;;;;4732686;30;20056;-61
2022/01/31 04:58:14;;;;;;;22.33;3.60;;;4.90;99.90;;;;;;4731686;30;20067;-61
2022/01/31 05:00:39;;;;;;;20.23;3.17;;;4.90;99.90;;;;;;4733446;30;20056;-62
2022/01/31 05:03:12;;;;;;;18.35;2.85;;;4.90;99.90;;;;;;4729879;30;20094;-61
2022/01/31 05:05:40;;;;;;;20.77;4.60;;;4.90;99.90;;;;;;4746401;30;20449;-61
2022/01/31 05:08:06;;;;;;;16.90;3.17;;;4.90;99.90;;;;;;4743595;30;20076;-62
2022/01/31 05:10:37;;;;;;;19.73;3.63;;;4.90;99.90;;;;;;4746088;30;20052;-60
2022/01/31 05:13:03;;;;;;;15.63;2.45;;;4.90;99.90;;;;;;4758738;30;20052;-60
2022/01/31 05:15:29;;;;;;;13.43;2.10;;;4.90;99.90;;;;;;4745908;30;20048;-60
2022/01/31 05:17:55;;;;;;;12.63;2.25;;;4.80;99.90;;;;;;4744132;30;20428;-61
2022/01/31 05:20:20;;;;;;;9.30;1.70;;;4.90;99.90;;;;;;4737989;30;20147;-60
2022/01/31 05:22:46;;;;;;;10.32;1.60;;;4.80;99.90;;;;;;4747710;30;20520;-60
2022/01/31 05:25:12;;;;;;;9.18;1.58;;;4.90;99.90;;;;;;4738257;30;20047;-61
2022/01/31 05:27:38;;;;;;;7.03;1.27;;;4.80;99.90;;;;;;4736435;30;20079;-61
2022/01/31 05:30:05;;;;;;;9.65;1.80;;;4.80;99.90;;;;;;4744087;30;20044;-61
2022/01/31 05:32:30;;;;;;;9.38;2.05;;;4.70;99.90;;;;;;4729484;30;20127;-61
2022/01/31 05:34:56;;;;;;;15.90;2.90;;;4.70;99.90;;;;;;4708126;30;20135;-61
2022/01/31 05:37:22;;;;;;;15.77;2.50;;;4.70;99.90;;;;;;4713438;30;20048;-60
2022/01/31 05:39:48;;;;;;;16.20;2.38;;;4.70;99.90;;;;;;4744762;30;20043;-61
2022/01/31 05:42:14;;;;;;;17.85;2.78;;;4.70;99.90;;;;;;4721618;30;20056;-60
2022/01/31 05:44:40;;;;;;;17.48;2.67;;;4.70;99.90;;;;;;4744248;30;20052;-61
2022/01/31 05:47:06;;;;;;;14.55;2.30;;;4.60;99.90;;;;;;4741812;30;20052;-61
2022/01/31 05:49:32;;;;;;;20.88;2.95;;;4.60;99.90;;;;;;4734581;30;20056;-61
2022/01/31 05:52:05;;;;;;;13.38;2.38;;;4.60;99.90;;;;;;4722233;30;20076;-61
2022/01/31 05:54:33;;;;;;;16.30;2.60;;;4.60;99.90;;;;;;4744624;30;20131;-61
2022/01/31 05:57:00;;;;;;;10.73;2.40;;;4.60;99.90;;;;;;4744503;30;20062;-61
2022/01/31 05:59:26;;;;;;;16.70;2.88;;;4.60;99.90;;;;;;4745141;30;20068;-60
2022/01/31 06:01:52;;;;;;;14.50;2.17;;;4.60;99.90;;;;;;4746206;30;20417;-60
2022/01/31 06:04:18;;;;;;;12.57;2.33;;;4.60;99.90;;;;;;4728888;30;20577;-60
2022/01/31 06:06:44;;;;;;;25.85;3.25;;;4.60;99.90;;;;;;4744385;30;20052;-61
2022/01/31 06:09:10;;;;;;;11.15;2.20;;;4.60;99.90;;;;;;4737599;30;20059;-61
2022/01/31 06:11:36;;;;;;;15.73;2.10;;;4.60;99.90;;;;;;4759095;30;20102;-61
2022/01/31 06:14:07;;;;;;;15.13;2.10;;;4.60;99.90;;;;;;4714847;30;20052;-61
2022/01/31 06:16:33;;;;;;;18.33;2.40;;;4.60;99.90;;;;;;4742100;30;20066;-61
2022/01/31 06:18:59;;;;;;;15.60;2.67;;;4.60;99.90;;;;;;4743278;30;20060;-61
2022/01/31 06:21:24;;;;;;;14.02;2.60;;;4.60;99.90;;;;;;4744925;30;20052;-61
2022/01/31 06:23:50;;;;;;;16.10;2.28;;;4.60;99.90;;;;;;4747096;30;20084;-61
2022/01/31 06:26:16;;;;;;;12.13;2.67;;;4.60;99.90;;;;;;4734157;30;20056;-60
2022/01/31 06:28:42;;;;;;;14.13;2.70;;;4.60;99.90;;;;;;4719527;30;20056;-60
2022/01/31 06:31:08;;;;;;;14.73;2.53;;;4.60;99.90;;;;;;4743888;30;20062;-61
2022/01/31 06:33:34;;;;;;;17.63;2.83;;;4.60;99.90;;;;;;4748011;30;20052;-61
2022/01/31 06:36:00;;;;;;;12.95;2.80;;;4.70;99.90;;;;;;4735419;30;20048;-60
2022/01/31 06:38:28;;;;;;;13.85;2.30;;;4.70;99.90;;;;;;4739327;30;20067;-60
2022/01/31 06:40:54;;;;;;;18.98;2.72;;;4.70;99.90;;;;;;4745399;30;20051;-61
2022/01/31 06:43:20;;;;;;;13.15;2.45;;;4.70;99.90;;;;;;4756060;30;20048;-60
2022/01/31 06:45:47;;;;;;;12.43;3.00;;;4.70;99.90;;;;;;4747810;30;20051;-61
2022/01/31 06:48:13;;;;;;;18.38;2.97;;;4.70;99.90;;;;;;4745153;30;20420;-60
2022/01/31 06:50:38;;;;;;;15.63;2.85;;;4.70;99.90;;;;;;4743784;30;20078;-61
2022/01/31 06:53:05;;;;;;;15.73;3.35;;;4.70;99.90;;;;;;4743667;30;20080;-61
2022/01/31 06:55:34;;;;;;;21.35;2.67;;;4.70;99.90;;;;;;4718402;30;20086;-60
2022/01/31 06:58:02;;;;;;;12.93;2.85;;;4.70;99.90;;;;;;4743350;30;20106;-62
2022/01/31 07:00:28;;;;;;;17.65;2.33;;;4.80;99.90;;;;;;4744250;30;20527;-61
2022/01/31 07:02:54;;;;;;;18.63;2.40;;;4.80;99.90;;;;;;4747742;30;20562;-60
2022/01/31 07:05:21;;;;;;;16.80;2.03;;;4.80;99.90;;;;;;4746333;30;20044;-60
2022/01/31 07:07:48;;;;;;;16.95;2.67;;;4.80;99.90;;;;;;4739392;30;20159;-60
2022/01/31 07:10:14;;;;;;;17.42;2.22;;;4.80;99.90;;;;;;4743726;30;20097;-60
2022/01/31 07:12:47;;;;;;;15.52;2.78;;;4.90;99.90;;;;;;4743971;30;20048;-61
2022/01/31 07:15:13;;;;;;;13.38;2.22;;;4.90;99.90;;;;;;4753398;30;20058;-60
2022/01/31 07:17:39;;;;;;;9.73;2.25;;;4.90;99.90;;;;;;4751471;30;20052;-61
2022/01/31 07:20:10;;;;;;;13.25;2.15;;;4.90;99.90;;;;;;4752564;30;20982;-60
2022/01/31 07:22:38;;;;;;;18.50;3.03;;;4.80;99.90;;;;;;4753394;30;20130;-61
2022/01/31 07:25:09;;;;;;;13.10;2.22;;;4.90;99.90;;;;;;4741129;30;20071;-60
2022/01/31 07:27:36;;;;;;;14.63;2.60;;;4.80;99.90;;;;;;4726910;30;20047;-61
2022/01/31 07:30:03;;;;;;;14.60;2.35;;;4.80;99.90;;;;;;4724022;30;20109;-61
2022/01/31 07:32:30;;;;;;;14.20;2.03;;;4.80;99.90;;;;;;4749853;30;20048;-61
2022/01/31 07:34:57;;;;;;;18.27;2.22;;;4.80;99.90;;;;;;4747642;30;20492;-60
2022/01/31 07:37:24;;;;;;;13.48;3.03;;;4.80;99.90;;;;;;4746055;30;20052;-61
2022/01/31 07:39:51;;;;;;;15.85;2.22;;;4.80;99.90;;;;;;4749434;30;20060;-61
2022/01/31 07:42:18;;;;;;;12.35;2.17;;;4.80;99.90;;;;;;4746015;30;20088;-60
2022/01/31 07:44:45;;;;;;;14.55;1.88;;;4.80;99.90;;;;;;4717370;30;20079;-61
2022/01/31 07:47:10;;;;;;;15.80;1.90;;;4.80;99.90;;;;;;4748303;30;20047;-61
2022/01/31 07:49:36;;;;;;;8.40;1.95;;;4.90;99.90;;;;;;4745095;30;20055;-61
2022/01/31 07:52:03;;;;;;;12.10;2.03;;;4.80;99.90;;;;;;4736778;30;20117;-61
2022/01/31 07:54:29;;;;;;;10.57;2.00;;;4.80;99.90;;;;;;4746415;30;20046;-61
2022/01/31 07:56:57;;;;;;;13.15;2.38;;;4.70;99.90;;;;;;4756634;30;20459;-61
2022/01/31 07:59:23;;;;;;;8.90;1.70;;;4.70;99.90;;;;;;4758770;30;20087;-61
2022/01/31 08:01:49;;;;;;;6.05;1.48;;;4.70;99.90;;;;;;4746371;30;20463;-60
2022/01/31 08:04:15;;;;;;;13.45;1.65;;;4.60;99.90;;;;;;4745130;30;20098;-61
2022/01/31 08:06:41;;;;;;;10.98;1.80;;;4.60;99.90;;;;;;4729654;30;20055;-60
2022/01/31 08:09:07;;;;;;;6.72;1.52;;;4.60;99.90;;;;;;4744708;30;20407;-60
2022/01/31 08:11:34;;;;;;;12.45;2.17;;;4.60;99.90;;;;;;4730079;30;20086;-60
2022/01/31 08:14:06;;;;;;;14.20;1.42;;;4.60;99.90;;;;;;4723042;30;20063;-60
2022/01/31 08:16:33;;;;;;;10.18;1.80;;;4.60;99.90;;;;;;4730963;30;20497;-61
2022/01/31 08:18:59;;;;;;;13.00;1.75;;;4.60;99.90;;;;;;4728949;30;20109;-61
2022/01/31 08:21:25;;;;;;;11.35;1.83;;;4.60;99.90;;;;;;4742142;30;20060;-60
2022/01/31 08:23:53;;;;;;;8.88;1.95;;;4.60;99.90;;;;;;4722228;30;20079;-60
2022/01/31 08:26:19;;;;;;;15.07;2.03;;;4.60;99.90;;;;;;4744451;30;22516;-61
2022/01/31 08:28:55;;;;;;;14.35;2.00;;;4.60;99.90;;;;;;4730620;30;20056;-61
2022/01/31 08:31:32;;;;;;;12.55;2.60;;;4.60;99.90;;;;;;4744620;30;20044;-61
2022/01/31 08:36:27;;;;;;;15.57;2.42;;;4.70;99.90;;;;;;4747056;30;20113;-60
2022/01/31 08:38:54;;;;;;;17.77;3.00;;;4.70;99.90;;;;;;4743569;30;20066;-60
2022/01/31 08:41:20;;;;;;;16.52;2.33;;;4.80;99.90;;;;;;4732373;30;20101;-61
2022/01/31 08:43:47;;;;;;;16.60;1.98;;;4.80;99.90;;;;;;4728752;30;20442;-61
2022/01/31 08:46:14;;;;;;;11.38;2.15;;;4.90;99.90;;;;;;4759018;30;20048;-61
2022/01/31 08:48:40;;;;;;;11.75;2.28;;;5.00;99.90;;;;;;4728066;30;20054;-61
2022/01/31 08:51:09;;;;;;;11.45;1.80;;;5.00;99.90;;;;;;4758882;30;20053;-60
2022/01/31 08:53:35;;;;;;;12.13;1.92;;;5.10;99.90;;;;;;4743742;30;20078;-61
2022/01/31 08:56:04;;;;;;;14.25;1.83;;;5.10;99.90;;;;;;4729323;30;20516;-61
2022/01/31 08:58:30;;;;;;;18.95;2.47;;;5.10;99.90;;;;;;4744523;30;20083;-60
2022/01/31 09:01:00;;;;;;;14.48;2.47;;;5.10;99.90;;;;;;4743824;30;20106;-61
2022/01/31 09:06:07;;;;;;;17.15;2.28;;;5.10;99.90;;;;;;4729646;30;20060;-60
2022/01/31 09:08:33;;;;;;;17.38;2.38;;;5.20;99.90;;;;;;4743458;30;20060;-61
2022/01/31 09:10:59;;;;;;;17.90;2.10;;;5.30;99.90;;;;;;4729423;30;20048;-60
2022/01/31 09:13:26;;;;;;;15.30;1.95;;;5.50;99.90;;;;;;4748619;30;20112;-60
2022/01/31 09:15:52;;;;;;;20.40;2.83;;;5.40;99.90;;;;;;4732112;30;20419;-61
2022/01/31 09:18:18;;;;;;;9.23;1.83;;;5.50;99.90;;;;;;4758255;30;20060;-60
2022/01/31 09:20:44;;;;;;;19.48;1.80;;;5.50;99.90;;;;;;4731337;30;20518;-61
2022/01/31 09:23:10;;;;;;;10.55;1.73;;;5.60;99.90;;;;;;4747954;30;20500;-61
2022/01/31 09:25:43;;;;;;;9.90;2.10;;;5.60;99.90;;;;;;4752254;30;20048;-61
2022/01/31 09:28:10;;;;;;;11.00;2.00;;;5.70;99.90;;;;;;4744478;30;20052;-60
2022/01/31 09:30:36;;;;;;;10.10;2.05;;;5.70;99.90;;;;;;4720638;30;20064;-61
2022/01/31 09:33:02;;;;;;;11.38;1.90;;;5.70;99.90;;;;;;4744763;30;20470;-60
2022/01/31 09:35:28;;;;;;;9.68;1.27;;;5.70;99.90;;;;;;4719716;30;20189;-60
2022/01/31 09:37:54;;;;;;;12.45;1.40;;;5.70;99.90;;;;;;4756908;30;20064;-60
2022/01/31 09:40:23;;;;;;;10.23;1.60;;;5.80;99.90;;;;;;4758748;30;20078;-61
2022/01/31 09:43:24;;;;;;;7.57;1.42;;;5.90;99.90;;;;;;4729813;30;20124;-60
2022/01/31 09:48:36;;;;;;;8.38;1.60;;;6.10;99.90;;;;;;4742877;30;20083;-60
2022/01/31 09:51:04;;;;;;;14.88;1.98;;;6.20;99.90;;;;;;4742805;30;20056;-60
2022/01/31 09:53:32;;;;;;;10.07;1.85;;;6.30;99.90;;;;;;4744891;30;20135;-60
2022/01/31 09:56:02;;;;;;;11.25;2.33;;;6.30;99.90;;;;;;4729815;30;20051;-61
2022/01/31 09:58:29;;;;;;;18.33;2.17;;;6.30;99.90;;;;;;4757199;30;20044;-61
2022/01/31 10:01:06;;;;;;;13.00;1.95;;;6.50;99.90;;;;;;4757791;30;20068;-60
2022/01/31 10:03:32;;;;;;;15.45;2.20;;;6.60;99.90;;;;;;4743357;30;20139;-61
2022/01/31 10:05:58;;;;;;;19.40;2.50;;;6.70;99.90;;;;;;4742746;30;20048;-60
2022/01/31 10:08:29;;;;;;;18.70;2.10;;;6.80;99.90;;;;;;4743527;30;20052;-60
2022/01/31 10:11:00;;;;;;;14.68;1.90;;;6.90;99.90;;;;;;4743332;30;20554;-61
2022/01/31 10:16:29;;;;;;;19.65;2.60;;;7.00;99.90;;;;;;4742902;30;20052;-60
2022/01/31 10:19:07;;;;;;;15.15;2.20;;;7.00;99.90;;;;;;4742869;30;20526;-61
2022/01/31 10:22:11;;;;;;;17.63;2.33;;;7.00;99.90;;;;;;4743891;30;20063;-60
2022/01/31 10:24:40;;;;;;;19.42;2.45;;;7.10;99.90;;;;;;4757707;30;20050;-60
2022/01/31 10:27:13;;;;;;;21.52;2.75;;;7.10;99.90;;;;;;4728005;30;20765;-61
2022/01/31 10:29:39;;;;;;;13.43;2.35;;;7.10;99.90;;;;;;4756923;30;20055;-62
2022/01/31 10:32:33;;;;;;;17.60;2.63;;;7.00;99.90;;;;;;4742860;30;20063;-61
2022/01/31 10:35:00;;;;;;;;;;;7.00;99.90;;;;;;4743169;30;20581;-61
2022/01/31 10:37:30;;;;;;;19.13;2.72;;;7.00;99.90;;;;;;4740202;30;20402;-61
2022/01/31 10:45:55;;;;;;;12.35;2.30;;;7.10;99.90;;;;;;4742895;30;20060;-61
2022/01/31 10:56:58;;;;;;;16.38;2.88;;;7.60;99.90;;;;;;4744074;30;20531;-61
2022/01/31 10:59:32;;;;;;;15.38;2.60;;;7.70;99.90;;;;;;4713885;30;20567;-61
2022/01/31 11:02:00;;;;;;;16.02;2.55;;;7.90;99.90;;;;;;4758871;30;20071;-61
2022/01/31 11:04:35;;;;;;;14.38;2.05;;;7.90;99.90;;;;;;4743025;30;20055;-62
2022/01/31 11:07:15;;;;;;;15.98;2.78;;;8.00;99.90;;;;;;4732760;30;20052;-61
2022/01/31 11:09:42;;;;;;;17.20;2.58;;;8.10;99.90;;;;;;4718800;30;20051;-61
2022/01/31 11:12:09;;;;;;;17.83;2.67;;;8.20;99.90;;;;;;4728093;30;20052;-62
2022/01/31 11:14:36;;;;;;;21.02;2.95;;;8.30;99.90;;;;;;4730308;30;20095;-61
2022/01/31 11:17:13;;;;;;;23.85;4.07;;;8.30;99.90;;;;;;4742373;30;20489;-61
2022/01/31 11:19:43;;;;;;;17.38;3.20;;;8.40;99.90;;;;;;4742021;30;20117;-62
2022/01/31 11:22:14;;;;;;;17.00;3.20;;;8.50;99.90;;;;;;4742356;30;20057;-61
2022/01/31 11:24:49;;;;;;;20.67;3.00;;;8.50;99.90;;;;;;4756436;30;20501;-61
2022/01/31 11:27:18;;;;;;;21.60;3.22;;;8.60;99.90;;;;;;4726986;30;20056;-62
2022/01/31 11:29:48;;;;;;;18.55;3.00;;;8.70;99.90;;;;;;4744429;30;20040;-61
2022/01/31 11:32:15;;;;;;;12.57;2.63;;;8.80;99.90;;;;;;4759122;30;20044;-61
2022/01/31 11:34:43;;;;;;;21.00;3.17;;;8.80;99.90;;;;;;4747717;30;20493;-61
2022/01/31 11:37:12;;;;;;;22.80;3.17;;;8.90;99.90;;;;;;4744842;30;20416;-61
2022/01/31 11:39:40;;;;;;;26.88;3.80;;;8.90;99.90;;;;;;4742657;30;20155;-61
2022/01/31 11:42:07;;;;;;;21.05;3.35;;;8.80;99.90;;;;;;4741154;30;20058;-62
2022/01/31 11:45:09;;;;;;;22.95;3.30;;;8.70;99.90;;;;;;4740634;30;20117;-61
2022/01/31 11:47:37;;;;;;;21.77;3.33;;;8.60;99.90;;;;;;4754503;30;20500;-61
2022/01/31 11:50:13;;;;;;;20.60;3.25;;;8.50;99.90;;;;;;4738925;30;20052;-62
2022/01/31 11:52:51;;;;;;;26.08;3.60;;;8.50;99.90;;;;;;4744869;30;20044;-61
2022/01/31 11:55:20;;;;;;;18.52;2.95;;;8.50;99.90;;;;;;4730153;30;20048;-61
2022/01/31 11:57:52;;;;;;;24.33;3.17;;;8.40;99.90;;;;;;4739142;30;20063;-62
2022/01/31 12:00:21;;;;;;;25.65;4.05;;;8.40;99.90;;;;;;4747995;30;20154;-62
2022/01/31 12:02:52;;;;;;;28.95;3.67;;;8.30;99.90;;;;;;4746411;30;20109;-61
2022/01/31 12:05:22;;;;;;;23.27;3.53;;;8.30;99.90;;;;;;4745910;30;20512;-61
2022/01/31 12:07:59;;;;;;;18.27;3.58;;;8.30;99.90;;;;;;4743683;30;20056;-61
2022/01/31 12:10:34;;;;;;;18.35;3.22;;;8.20;99.90;;;;;;4746205;30;20108;-61
2022/01/31 12:13:26;;;;;;;21.40;3.60;;;8.20;99.90;;;;;;4759911;30;20128;-62
2022/01/31 12:18:49;;;;;;;29.52;3.90;;;8.30;99.90;;;;;;4759205;30;20505;-61
2022/01/31 12:24:30;;;;;;;29.05;3.38;;;8.20;99.90;;;;;;4761222;30;22352;-61
2022/01/31 12:26:58;;;;;;;31.67;4.00;;;8.20;99.90;;;;;;4745009;30;20170;-61
2022/01/31 12:29:28;;;;;;;26.98;3.42;;;8.20;99.90;;;;;;4729914;30;20942;-61
2022/01/31 12:32:08;;;;;;;20.77;3.85;;;8.30;99.90;;;;;;4745905;30;20078;-61
2022/01/31 12:34:38;;;;;;;23.63;3.47;;;8.30;99.90;;;;;;4744205;30;20044;-62
2022/01/31 12:37:36;;;;;;;26.60;4.07;;;8.30;99.90;;;;;;4742948;30;20156;-61
2022/01/31 12:40:27;;;;;;;23.00;3.47;;;8.30;99.90;;;;;;4746126;30;20067;-62
2022/01/31 12:43:11;;;;;;;26.30;4.20;;;8.30;99.90;;;;;;4725366;30;20566;-62
2022/01/31 12:45:40;;;;;;;23.52;3.83;;;8.30;99.90;;;;;;4751190;30;20485;-62
2022/01/31 12:50:40;;;;;;;21.48;3.53;;;8.30;99.90;;;;;;4725449;30;20064;-61
2022/01/31 12:53:37;;;;;;;21.98;3.80;;;8.20;99.90;;;;;;4759372;30;20120;-61
2022/01/31 12:56:10;;;;;;;19.95;3.25;;;8.20;99.90;;;;;;4746319;30;20088;-61
2022/01/31 12:58:36;;;;;;;23.48;3.95;;;8.20;99.90;;;;;;4759307;30;20407;-61
2022/01/31 13:01:13;;;;;;;19.42;3.00;;;8.20;99.90;;;;;;4759618;30;20067;-61
2022/01/31 13:03:42;;;;;;;28.13;3.78;;;8.20;99.90;;;;;;4729825;30;20060;-61
2022/01/31 13:06:27;;;;;;;25.65;3.50;;;8.10;99.90;;;;;;4745623;30;20059;-61
2022/01/31 13:08:53;;;;;;;21.67;3.45;;;8.00;99.90;;;;;;4744068;30;20067;-61
2022/01/31 13:11:20;;;;;;;28.55;3.63;;;8.00;99.90;;;;;;4729430;30;20049;-61
2022/01/31 13:13:46;;;;;;;30.33;3.60;;;8.00;99.90;;;;;;4759428;30;20063;-61
2022/01/31 13:16:14;;;;;;;20.02;3.25;;;8.00;99.90;;;;;;4759974;30;20045;-62
2022/01/31 13:18:40;;;;;;;25.48;3.80;;;7.90;99.90;;;;;;4759444;30;20089;-61
2022/01/31 13:21:10;;;;;;;17.40;2.80;;;7.90;99.90;;;;;;4728083;30;20130;-61
2022/01/31 13:23:40;;;;;;;28.25;3.67;;;7.90;99.90;;;;;;4759879;30;20128;-61
2022/01/31 13:26:09;;;;;;;26.08;3.70;;;7.90;99.90;;;;;;4743721;30;20060;-61
2022/01/31 13:28:35;;;;;;;20.45;3.63;;;7.90;99.90;;;;;;4741977;30;20072;-61